Time;durP1;ratioP1;P1;durP2;ratioP2;P2;SDS_P1;SDS_P2;PMS_P1;PMS_P2;Temp;Humidity;BMP_temperature;BMP_pressure;BME280_temperature;BME280_humidity;BME280_pressure;Samples;Min_cycle;Max_cycle;Signal;HPM_P1;HPM_P2
2021/04/13 00:01:34;;;;;;;4.72;1.33;;;;;;;0.45;95.56;101713.41;5033286;28;20097;-79
2021/04/13 00:04:11;;;;;;;5.32;1.80;;;;;;;0.40;95.40;101708.13;5016869;28;20021;-79
2021/04/13 00:06:50;;;;;;;4.07;1.58;;;;;;;0.35;95.70;101716.41;5034582;28;20031;-78
2021/04/13 00:09:22;;;;;;;4.85;1.70;;;;;;;0.27;95.92;101712.66;5034432;28;20028;-78
2021/04/13 00:11:51;;;;;;;5.32;1.70;;;;;;;0.22;96.52;101708.25;5033949;28;20056;-79
2021/04/13 00:14:23;;;;;;;5.70;2.30;;;;;;;0.13;96.68;101702.75;5034100;28;20156;-78
2021/04/13 00:16:51;;;;;;;5.65;1.67;;;;;;;0.04;97.33;101707.44;5034167;28;20032;-78
2021/04/13 00:19:20;;;;;;;6.43;2.08;;;;;;;0.06;97.30;101705.81;5033854;28;20389;-78
2021/04/13 00:21:45;;;;;;;6.50;2.00;;;;;;;-0.05;98.01;101705.38;5033920;28;20389;-79
2021/04/13 00:24:18;;;;;;;6.38;2.10;;;;;;;-0.05;98.13;101704.50;5032493;28;20017;-78
2021/04/13 00:26:49;;;;;;;8.68;2.20;;;;;;;-0.04;98.22;101703.69;5033438;28;20037;-78
2021/04/13 00:29:20;;;;;;;5.50;1.80;;;;;;;-0.06;98.50;101703.63;5033887;28;20025;-78
2021/04/13 00:31:48;;;;;;;6.35;2.03;;;;;;;-0.07;98.68;101703.56;5033387;28;20539;-79
2021/04/13 00:34:24;;;;;;;5.88;1.73;;;;;;;-0.09;98.75;101697.53;5015668;28;20528;-78
2021/04/13 00:36:55;;;;;;;4.88;1.88;;;;;;;-0.13;99.01;101703.28;5033404;28;20454;-78
2021/04/13 00:39:30;;;;;;;4.53;1.75;;;;;;;-0.16;99.31;101700.59;5033518;28;20428;-79
2021/04/13 00:42:02;;;;;;;7.32;1.92;;;;;;;-0.24;99.80;101692.63;5033198;28;20117;-79
2021/04/13 00:44:32;;;;;;;7.38;1.95;;;;;;;-0.27;99.81;101698.47;5033396;28;20076;-78
2021/04/13 00:47:02;;;;;;;8.38;2.20;;;;;;;-0.29;99.94;101694.09;5035815;28;20026;-79
2021/04/13 00:49:33;;;;;;;6.55;1.90;;;;;;;-0.29;100.00;101696.66;5035795;28;20056;-79
2021/04/13 00:52:06;;;;;;;5.13;1.70;;;;;;;-0.28;100.00;101700.94;5034546;28;20025;-79
2021/04/13 00:54:39;;;;;;;6.05;1.80;;;;;;;-0.32;100.00;101697.38;5035323;28;20128;-79
2021/04/13 00:57:20;;;;;;;5.95;2.00;;;;;;;-0.33;100.00;101700.75;5039280;28;20029;-79
2021/04/13 00:59:48;;;;;;;6.75;2.20;;;;;;;-0.35;100.00;101694.69;5039749;28;20029;-78
2021/04/13 01:02:19;;;;;;;7.40;1.83;;;;;;;-0.39;100.00;101697.06;5039908;28;20029;-79
2021/04/13 01:04:55;;;;;;;6.15;1.88;;;;;;;-0.39;100.00;101697.94;5040793;28;20112;-79
2021/04/13 01:07:40;;;;;;;5.82;1.95;;;;;;;-0.42;100.00;101697.78;5039548;28;20508;-79
2021/04/13 01:10:26;;;;;;;5.28;1.92;;;;;;;-0.40;100.00;101696.19;5040552;28;20052;-79
2021/04/13 01:13:04;;;;;;;6.45;1.95;;;;;;;-0.46;100.00;101695.91;5038789;28;20021;-79
2021/04/13 01:15:30;;;;;;;6.40;1.95;;;;;;;-0.41;100.00;101698.66;5040324;28;20024;-79
2021/04/13 01:17:55;;;;;;;6.68;2.00;;;;;;;-0.39;100.00;101700.47;5040189;28;20397;-79
2021/04/13 01:20:35;;;;;;;6.07;1.80;;;;;;;-0.44;100.00;101703.63;5039962;28;20576;-79
2021/04/13 01:23:12;;;;;;;9.40;1.95;;;;;;;-0.47;100.00;101697.56;5038462;28;20481;-79
2021/04/13 01:25:41;;;;;;;5.82;2.00;;;;;;;-0.47;100.00;101691.59;5039456;28;20109;-79
2021/04/13 01:28:07;;;;;;;5.28;1.88;;;;;;;-0.47;100.00;101687.38;5040585;28;20126;-79
2021/04/13 01:30:49;;;;;;;6.75;2.47;;;;;;;-0.55;100.00;101695.50;5040104;28;20029;-79
2021/04/13 01:33:16;;;;;;;7.28;1.90;;;;;;;-0.55;100.00;101700.59;5039857;28;20048;-79
2021/04/13 01:35:50;;;;;;;7.60;1.95;;;;;;;-0.53;100.00;101693.88;5038845;28;20025;-79
2021/04/13 01:38:32;;;;;;;6.88;2.20;;;;;;;-0.52;100.00;101700.72;5039403;28;20029;-79
2021/04/13 01:43:43;;;;;;;8.68;2.65;;;;;;;-0.57;100.00;101708.16;5039945;28;20029;-78
2021/04/13 01:46:11;;;;;;;6.90;1.63;;;;;;;-0.54;100.00;101697.22;5040282;28;20027;-79
2021/04/13 01:48:38;;;;;;;5.13;1.92;;;;;;;-0.59;100.00;101711.44;5039432;28;20028;-79
2021/04/13 01:51:06;;;;;;;8.07;2.20;;;;;;;-0.59;100.00;101704.66;5039409;28;20033;-79
2021/04/13 01:53:39;;;;;;;11.95;2.10;;;;;;;-0.62;100.00;101712.16;5039016;28;20025;-78
2021/04/13 01:56:08;;;;;;;7.53;2.25;;;;;;;-0.60;100.00;101709.69;5022951;28;20036;-79
2021/04/13 01:58:45;;;;;;;7.78;2.53;;;;;;;-0.64;100.00;101700.19;5040035;28;20033;-78
2021/04/13 02:01:32;;;;;;;7.35;1.90;;;;;;;-0.63;100.00;101701.91;5038503;28;20457;-79
2021/04/13 02:04:24;;;;;;;8.45;2.55;;;;;;;-0.61;100.00;101711.38;5039581;28;20022;-79
2021/04/13 02:07:19;;;;;;;5.93;1.90;;;;;;;-0.66;100.00;101712.81;5020996;28;20132;-78
2021/04/13 02:09:54;;;;;;;5.30;1.98;;;;;;;-0.61;100.00;101708.84;5037795;28;20519;-78
2021/04/13 02:12:25;;;;;;;9.13;2.33;;;;;;;-0.56;100.00;101703.94;5039556;28;20029;-79
2021/04/13 02:15:06;;;;;;;9.50;2.22;;;;;;;-0.65;100.00;101700.97;5021526;28;20083;-79
2021/04/13 02:17:46;;;;;;;7.18;2.30;;;;;;;-0.65;100.00;101700.97;5039513;28;20055;-78
2021/04/13 02:20:14;;;;;;;5.28;1.90;;;;;;;-0.65;100.00;101698.41;5038033;28;20053;-78
2021/04/13 02:22:47;;;;;;;9.90;2.30;;;;;;;-0.68;100.00;101705.91;5039379;28;20044;-79
2021/04/13 02:25:17;;;;;;;8.98;1.80;;;;;;;-0.72;100.00;101700.69;5037525;28;20025;-78
2021/04/13 02:27:45;;;;;;;6.45;2.10;;;;;;;-0.67;100.00;101695.81;5039609;28;20025;-79
2021/04/13 02:30:15;;;;;;;5.10;1.83;;;;;;;-0.65;100.00;101708.59;5040040;28;20021;-79
2021/04/13 02:32:44;;;;;;;5.50;1.98;;;;;;;-0.69;100.00;101699.94;5021448;28;20017;-79
2021/04/13 02:35:25;;;;;;;9.48;2.15;;;;;;;-0.73;100.00;101701.50;5039335;28;20494;-79
2021/04/13 02:37:54;;;;;;;7.18;1.88;;;;;;;-0.77;100.00;101696.16;5037437;28;20033;-78
2021/04/13 02:40:39;;;;;;;7.75;2.00;;;;;;;-0.74;100.00;101698.84;5039052;28;20493;-79
2021/04/13 02:43:14;;;;;;;8.32;2.10;;;;;;;-0.76;100.00;101700.47;5038875;28;20029;-79
2021/04/13 02:45:44;;;;;;;5.93;2.10;;;;;;;-0.76;100.00;101700.47;5038730;28;20022;-79
2021/04/13 02:48:23;;;;;;;9.18;1.80;;;;;;;-0.82;100.00;101695.97;5038775;28;20112;-79
2021/04/13 02:50:50;;;;;;;7.38;1.95;;;;;;;-0.81;100.00;101707.03;5021793;28;20029;-78
2021/04/13 02:53:24;;;;;;;7.50;2.17;;;;;;;-0.78;100.00;101707.16;5039479;28;20030;-79
2021/04/13 02:56:00;;;;;;;7.40;2.10;;;;;;;-0.77;100.00;101698.72;5038814;28;20026;-79
2021/04/13 02:58:35;;;;;;;12.98;2.83;;;;;;;-0.84;100.00;101702.66;5037577;28;20025;-78
2021/04/13 03:01:00;;;;;;;5.22;2.08;;;;;;;-0.79;100.00;101701.22;5037662;28;20025;-78
2021/04/13 03:03:36;;;;;;;6.78;2.00;;;;;;;-0.79;100.00;101705.44;5038876;28;20048;-79
2021/04/13 03:06:02;;;;;;;5.43;2.15;;;;;;;-0.75;100.00;101705.63;5039715;28;20029;-79
2021/04/13 03:08:34;;;;;;;6.13;2.00;;;;;;;-0.72;100.00;101710.88;5040710;28;20044;-79
2021/04/13 03:11:09;;;;;;;6.57;1.90;;;;;;;-0.74;100.00;101704.84;5038199;28;20021;-79
2021/04/13 03:13:37;;;;;;;5.75;2.28;;;;;;;-0.81;100.00;101715.53;5038597;28;20464;-78
2021/04/13 03:16:05;;;;;;;8.35;2.25;;;;;;;-0.83;100.00;101714.63;5036970;28;20123;-79
2021/04/13 03:18:40;;;;;;;6.20;1.90;;;;;;;-0.84;100.00;101717.06;5036536;28;20063;-78
2021/04/13 03:21:11;;;;;;;9.02;2.95;;;;;;;-0.88;100.00;101705.88;5037645;28;20386;-80
2021/04/13 03:23:38;;;;;;;10.10;2.40;;;;;;;-0.85;100.00;101708.56;5036074;28;20092;-78
2021/04/13 03:26:13;;;;;;;8.13;2.13;;;;;;;-0.81;100.00;101713.00;5038786;28;20022;-78
2021/04/13 03:28:50;;;;;;;8.65;2.30;;;;;;;-0.73;100.00;101701.50;5038509;28;20485;-78
2021/04/13 03:31:19;;;;;;;6.20;2.05;;;;;;;-0.73;100.00;101703.19;5020052;28;20083;-79
2021/04/13 03:33:45;;;;;;;10.25;2.50;;;;;;;-0.75;100.00;101697.13;5037689;28;20099;-79
2021/04/13 03:36:19;;;;;;;10.68;2.28;;;;;;;-0.70;100.00;101709.28;5020264;28;20040;-78
2021/04/13 03:38:48;;;;;;;6.90;2.70;;;;;;;-0.63;100.00;101709.56;5038370;28;20048;-78
2021/04/13 03:41:15;;;;;;;11.27;2.50;;;;;;;-0.57;100.00;101708.16;5019996;28;20030;-78
2021/04/13 03:43:41;;;;;;;10.07;2.60;;;;;;;-0.55;100.00;101711.66;5038235;28;20030;-78
2021/04/13 03:46:10;;;;;;;5.78;2.53;;;;;;;-0.58;100.00;101714.06;5038756;28;20026;-78
2021/04/13 03:48:38;;;;;;;12.00;2.60;;;;;;;-0.58;100.00;101718.28;5038169;28;20021;-79
2021/04/13 03:51:08;;;;;;;11.30;2.88;;;;;;;-0.57;100.00;101731.09;5037494;28;20101;-79
2021/04/13 03:53:43;;;;;;;6.85;2.30;;;;;;;-0.58;100.00;101725.94;5038272;28;20068;-78
2021/04/13 03:56:15;;;;;;;9.65;2.25;;;;;;;-0.65;100.00;101724.75;5038672;28;20100;-78
2021/04/13 03:58:50;;;;;;;6.57;2.40;;;;;;;-0.67;100.00;101730.59;5037955;28;20397;-79
2021/04/13 04:01:18;;;;;;;;;;;;;;;-0.67;100.00;101722.97;5039498;28;20025;-79
2021/04/13 04:03:50;;;;;;;9.27;1.95;;;;;;;-0.66;100.00;101722.16;5039608;28;19951;-78
2021/04/13 04:06:50;;;;;;;9.52;2.33;;;;;;;-0.68;100.00;101729.72;5037915;28;20029;-79
2021/04/13 04:09:20;;;;;;;9.80;2.60;;;;;;;-0.73;100.00;101729.50;5021042;28;20394;-78
2021/04/13 04:11:48;;;;;;;11.13;2.83;;;;;;;-0.70;100.00;101728.78;5037250;28;20030;-79
2021/04/13 04:14:18;;;;;;;10.85;2.60;;;;;;;-0.67;100.00;101734.03;5037246;28;20029;-79
2021/04/13 04:16:44;;;;;;;8.05;2.50;;;;;;;-0.65;100.00;101728.97;5040510;28;20416;-79
2021/04/13 04:19:13;;;;;;;8.38;2.70;;;;;;;-0.59;100.00;101737.78;5038181;28;20022;-78
2021/04/13 04:21:45;;;;;;;10.38;2.83;;;;;;;-0.60;100.00;101735.19;5038650;28;20482;-79
2021/04/13 04:24:22;;;;;;;9.68;2.60;;;;;;;-0.66;100.00;101733.22;5022012;28;20017;-78
2021/04/13 04:26:56;;;;;;;9.90;2.78;;;;;;;-0.65;100.00;101736.63;5037520;28;20108;-79
2021/04/13 04:29:33;;;;;;;9.23;2.83;;;;;;;-0.69;100.00;101735.63;5037515;28;20025;-78
2021/04/13 04:32:28;;;;;;;10.25;2.58;;;;;;;-0.68;100.00;101732.25;5041826;28;20493;-79
2021/04/13 04:34:56;;;;;;;6.65;2.50;;;;;;;-0.70;100.00;101742.38;5042498;28;20041;-79
2021/04/13 04:37:47;;;;;;;10.15;2.92;;;;;;;-0.73;100.00;101746.47;5041613;28;20026;-78
2021/04/13 04:40:16;;;;;;;6.22;2.55;;;;;;;-0.62;100.00;101757.16;5000489;28;20037;-78
2021/04/13 04:42:49;;;;;;;9.32;2.63;;;;;;;-0.62;100.00;101754.59;5040182;28;20485;-79
2021/04/13 04:45:36;;;;;;;10.33;2.87;;;;;;;-0.63;100.00;101760.50;5039341;28;20033;-79
2021/04/13 04:48:22;;;;;;;10.75;3.22;;;;;;;-0.62;100.00;101770.75;5041271;28;20257;-79
2021/04/13 04:50:48;;;;;;;11.98;2.92;;;;;;;-0.53;100.00;101775.41;5041741;28;20477;-79
2021/04/13 04:53:16;;;;;;;13.32;2.88;;;;;;;-0.42;100.00;101769.16;5074193;22;20056;-76
2021/04/13 04:55:41;;;;;;;12.75;4.95;;;;;;;-0.35;100.00;101771.16;5056639;28;20025;-76
2021/04/13 04:58:06;;;;;;;9.35;2.38;;;;;;;-0.30;100.00;101759.50;5055409;28;20086;-76
2021/04/13 05:00:31;;;;;;;11.25;3.00;;;;;;;-0.26;100.00;101768.16;5056684;28;20029;-77
2021/04/13 05:02:57;;;;;;;7.63;2.60;;;;;;;-0.28;100.00;101770.66;5056105;28;20048;-79
2021/04/13 05:05:22;;;;;;;9.38;2.88;;;;;;;-0.19;100.00;101761.66;5072818;28;20017;-79
2021/04/13 05:07:47;;;;;;;11.30;2.80;;;;;;;-0.13;100.00;101767.91;5058325;28;20052;-80
2021/04/13 05:10:13;;;;;;;6.85;2.60;;;;;;;-0.13;100.00;101773.00;5072177;28;20473;-78
2021/04/13 05:12:38;;;;;;;13.18;2.92;;;;;;;-0.18;100.00;101769.38;5071683;28;20032;-78
2021/04/13 05:15:04;;;;;;;9.77;2.80;;;;;;;-0.15;100.00;101763.56;5055161;28;20048;-78
2021/04/13 05:17:29;;;;;;;9.25;2.60;;;;;;;-0.04;100.00;101768.31;5056271;28;20025;-78
2021/04/13 05:19:54;;;;;;;19.13;3.33;;;;;;;0.03;100.00;101771.13;5056249;28;20017;-78
2021/04/13 05:22:20;;;;;;;12.90;2.97;;;;;;;0.02;100.00;101771.94;5056255;28;20044;-78
2021/04/13 05:24:45;;;;;;;9.50;2.65;;;;;;;0.07;100.00;101779.00;5072765;28;20065;-79
2021/04/13 05:27:10;;;;;;;9.82;2.67;;;;;;;0.12;100.00;101777.50;5055373;28;20032;-78
2021/04/13 05:29:36;;;;;;;9.00;2.50;;;;;;;0.20;100.00;101786.38;5055733;28;20084;-77
2021/04/13 05:32:01;;;;;;;10.32;2.55;;;;;;;0.21;100.00;101790.66;5071896;28;20025;-78
2021/04/13 05:34:26;;;;;;;12.93;3.53;;;;;;;0.27;100.00;101794.28;5056821;28;20032;-79
2021/04/13 05:36:54;;;;;;;12.50;2.88;;;;;;;0.36;100.00;101794.69;5071977;28;20090;-79
2021/04/13 05:39:20;;;;;;;9.63;2.47;;;;;;;0.59;100.00;101790.59;5072161;28;20464;-79
2021/04/13 05:41:48;;;;;;;12.55;3.30;;;;;;;0.74;100.00;101792.88;5056505;28;20366;-79
2021/04/13 05:44:15;;;;;;;12.77;2.95;;;;;;;0.54;100.00;101797.16;5056428;28;20104;-78
2021/04/13 05:46:40;;;;;;;12.82;2.70;;;;;;;0.57;100.00;101800.72;5071937;28;20028;-78
2021/04/13 05:49:05;;;;;;;13.45;3.33;;;;;;;0.87;100.00;101793.47;5056460;28;20388;-78
2021/04/13 05:51:30;;;;;;;6.90;2.22;;;;;;;1.03;100.00;101801.75;5057232;28;20108;-79
2021/04/13 05:53:56;;;;;;;8.38;2.20;;;;;;;1.54;97.68;101800.41;5072070;28;20396;-79
2021/04/13 05:56:36;;;;;;;11.77;2.15;;;;;;;1.61;96.15;101799.81;5056324;28;20047;-79
2021/04/13 05:59:05;;;;;;;8.35;2.00;;;;;;;1.54;95.77;101805.50;5071735;28;20025;-79
2021/04/13 06:01:32;;;;;;;8.07;2.13;;;;;;;1.95;94.40;101807.88;5056229;28;20086;-79
2021/04/13 06:03:58;;;;;;;9.60;2.40;;;;;;;2.30;91.57;101809.16;5056478;28;20485;-79
2021/04/13 06:06:23;;;;;;;5.45;1.80;;;;;;;2.35;91.51;101812.75;5071693;28;20063;-79
2021/04/13 06:08:49;;;;;;;10.38;2.30;;;;;;;2.29;91.70;101820.22;5056032;28;20504;-79
2021/04/13 06:11:18;;;;;;;8.00;2.42;;;;;;;2.80;90.05;101816.84;5055580;28;20021;-78
2021/04/13 06:13:44;;;;;;;15.02;1.98;;;;;;;2.73;88.47;101810.66;5055273;28;20496;-78
2021/04/13 06:16:11;;;;;;;7.85;1.77;;;;;;;3.40;87.19;101817.97;5070701;28;20119;-78
2021/04/13 06:18:36;;;;;;;10.45;2.00;;;;;;;3.68;86.32;101816.25;5055144;28;20025;-78
2021/04/13 06:21:02;;;;;;;9.23;2.00;;;;;;;3.51;84.05;101826.03;5070703;28;20399;-78
2021/04/13 06:23:27;;;;;;;11.23;2.00;;;;;;;2.85;88.82;101825.56;5070745;28;20107;-79
2021/04/13 06:25:53;;;;;;;16.38;2.80;;;;;;;2.20;91.30;101837.81;5071026;28;20384;-79
2021/04/13 06:28:18;;;;;;;7.22;2.03;;;;;;;2.01;95.06;101852.47;5056036;28;20029;-80
2021/04/13 06:30:43;;;;;;;7.05;2.08;;;;;;;1.75;96.21;101841.25;5057009;28;20116;-80
2021/04/13 06:33:09;;;;;;;8.20;2.10;;;;;;;2.45;94.09;101847.22;5054779;28;20021;-80
2021/04/13 06:35:34;;;;;;;7.68;1.80;;;;;;;2.43;94.64;101844.63;5055854;28;20469;-80
2021/04/13 06:38:06;;;;;;;10.93;1.55;;;;;;;2.87;91.18;101849.56;5070856;28;20021;-79
2021/04/13 06:40:56;;;;;;;8.35;1.88;;;;;;;3.17;91.94;101855.72;5071204;28;20511;-79
2021/04/13 06:43:38;;;;;;;9.45;1.80;;;;;;;2.65;95.29;101848.81;5055713;28;20048;-81
2021/04/13 06:46:30;;;;;;;9.27;1.35;;;;;;;3.29;92.22;101860.34;5071420;28;20025;-81
2021/04/13 06:49:13;;;;;;;13.52;1.88;;;;;;;3.55;90.59;101857.75;5056092;28;20052;-80
2021/04/13 06:52:05;;;;;;;7.50;1.52;;;;;;;4.12;89.12;101857.75;5055870;28;20033;-81
2021/04/13 06:54:40;;;;;;;8.98;1.67;;;;;;;3.77;87.02;101861.84;5055980;28;20453;-81
2021/04/13 06:57:13;;;;;;;8.77;1.27;;;;;;;3.57;88.45;101866.34;5070957;28;20432;-79
2021/04/13 07:00:00;;;;;;;8.10;1.70;;;;;;;3.38;91.23;101860.63;5070977;28;20116;-79
2021/04/13 07:02:47;;;;;;;6.45;1.20;;;;;;;3.05;92.57;101867.22;5070402;28;20125;-79
2021/04/13 07:05:17;;;;;;;5.72;1.70;;;;;;;3.55;91.97;101866.31;5071014;28;20025;-79
2021/04/13 07:08:03;;;;;;;8.88;1.77;;;;;;;3.23;91.64;101872.97;5055966;28;20028;-79
2021/04/13 07:10:33;;;;;;;5.50;1.10;;;;;;;2.70;92.03;101878.00;5071613;28;20060;-79
2021/04/13 07:13:13;;;;;;;5.93;1.10;;;;;;;3.83;88.45;101880.88;5070865;28;20021;-79
2021/04/13 07:15:50;;;;;;;6.03;0.98;;;;;;;4.91;82.72;101881.34;5070798;28;20075;-79
2021/04/13 07:18:28;;;;;;;6.43;1.10;;;;;;;5.21;80.59;101889.84;5055031;28;20025;-79
2021/04/13 07:21:08;;;;;;;11.45;1.52;;;;;;;4.64;80.80;101887.47;5055249;28;20029;-79
2021/04/13 07:23:43;;;;;;;8.40;1.20;;;;;;;5.02;82.85;101887.66;5055933;28;20477;-79
2021/04/13 07:26:17;;;;;;;10.90;2.78;;;;;;;5.20;78.90;101889.81;5055097;28;20075;-79
2021/04/13 07:29:26;;;;;;;7.43;1.40;;;;;;;5.66;78.76;101894.38;5054948;28;20032;-79
2021/04/13 07:31:54;;;;;;;10.90;1.23;;;;;;;5.79;78.50;101898.13;5025569;28;20124;-79
2021/04/13 07:34:21;;;;;;;6.63;0.90;;;;;;;5.80;76.88;101891.25;5054815;28;20029;-79
2021/04/13 07:36:54;;;;;;;7.35;1.17;;;;;;;5.57;80.23;101893.28;5070045;28;20543;-79
2021/04/13 07:39:19;;;;;;;5.60;1.88;;;;;;;4.92;82.25;101895.94;5055517;28;20098;-79
2021/04/13 07:41:53;;;;;;;11.68;2.22;;;;;;;6.36;76.17;101889.06;5070247;28;20025;-79
2021/04/13 07:44:26;;;;;;;7.97;2.00;;;;;;;5.51;77.46;101894.91;5054875;28;20017;-79
2021/04/13 07:47:17;;;;;;;5.40;0.90;;;;;;;5.43;79.28;101893.81;5070084;28;20028;-79
2021/04/13 07:49:53;;;;;;;10.60;1.25;;;;;;;5.52;75.28;101896.63;5053448;28;20084;-79
2021/04/13 07:52:24;;;;;;;4.78;0.90;;;;;;;5.27;75.43;101894.28;5069924;28;20405;-79
2021/04/13 07:54:53;;;;;;;6.38;1.17;;;;;;;6.08;73.43;101891.06;5070002;28;20128;-79
2021/04/13 07:57:42;;;;;;;5.28;0.98;;;;;;;6.46;73.04;101893.56;5070008;28;20020;-80
2021/04/13 08:00:19;;;;;;;7.60;1.27;;;;;;;6.82;71.68;101888.25;5069864;28;20036;-80
2021/04/13 08:02:54;;;;;;;8.70;1.55;;;;;;;7.30;70.03;101899.44;5054071;28;20024;-80
2021/04/13 08:05:59;;;;;;;10.68;1.50;;;;;;;5.37;78.48;101903.09;5068612;28;20074;-79
2021/04/13 08:08:33;;;;;;;5.70;1.27;;;;;;;4.76;78.57;101904.94;5012731;28;20530;-79
2021/04/13 08:11:04;;;;;;;;;;;;;;;4.76;79.00;101908.38;5047860;28;20548;-79
2021/04/13 08:13:31;;;;;;;14.18;1.80;;;;;;;5.70;76.71;101901.34;5053815;28;20407;-79
2021/04/13 08:15:57;;;;;;;13.85;2.08;;;;;;;5.20;79.28;101907.81;5070654;28;20088;-79
2021/04/13 08:18:40;;;;;;;10.90;2.03;;;;;;;4.97;80.31;101907.22;5054375;28;20060;-79
2021/04/13 08:21:21;;;;;;;8.25;2.15;;;;;;;5.86;76.72;101912.00;5054771;28;20078;-79
2021/04/13 08:23:48;;;;;;;9.32;1.35;;;;;;;7.18;72.45;101910.41;5069722;28;20041;-79
2021/04/13 08:26:25;;;;;;;16.73;2.45;;;;;;;7.25;71.64;101901.06;5053005;28;20025;-79
2021/04/13 08:29:16;;;;;;;10.52;1.75;;;;;;;6.78;72.69;101911.38;5069486;28;20025;-78
2021/04/13 08:35:08;;;;;;;10.10;1.65;;;;;;;7.32;71.70;101905.47;5053396;28;20433;-79
2021/04/13 08:37:49;;;;;;;11.38;1.70;;;;;;;7.24;71.01;101912.22;5053524;28;20031;-79
2021/04/13 08:40:32;;;;;;;9.68;1.83;;;;;;;7.61;66.46;101911.97;5068990;28;20031;-79
2021/04/13 08:43:07;;;;;;;11.57;2.00;;;;;;;8.50;66.33;101900.31;5068989;28;20028;-79
2021/04/13 08:45:52;;;;;;;12.18;2.50;;;;;;;7.47;67.86;101904.84;5054064;28;20017;-79
2021/04/13 08:48:31;;;;;;;15.98;2.47;;;;;;;8.01;65.51;101907.41;5069406;28;20025;-79
2021/04/13 08:51:35;;;;;;;16.27;2.45;;;;;;;9.37;59.37;101896.88;5069121;28;20025;-79
2021/04/13 08:54:21;;;;;;;12.80;2.10;;;;;;;8.50;62.74;101892.56;5051991;28;20028;-79
2021/04/13 08:57:13;;;;;;;12.57;2.00;;;;;;;7.58;63.45;101901.59;5053707;28;20029;-79
2021/04/13 08:59:45;;;;;;;15.38;2.92;;;;;;;6.90;66.55;101897.00;5053814;28;20380;-79
2021/04/13 09:02:25;;;;;;;10.10;1.55;;;;;;;8.35;62.16;101894.06;5053449;28;20465;-79
2021/04/13 09:05:08;;;;;;;11.80;2.17;;;;;;;7.69;64.01;101901.75;5068898;28;20178;-79
2021/04/13 09:07:57;;;;;;;12.45;2.40;;;;;;;9.71;59.63;101889.38;5053248;28;20017;-79
2021/04/13 09:10:35;;;;;;;11.68;1.77;;;;;;;7.53;63.23;101890.31;5052157;28;20048;-78
2021/04/13 09:13:05;;;;;;;9.63;2.10;;;;;;;7.60;64.41;101891.28;5053266;28;20029;-78
2021/04/13 09:15:32;;;;;;;14.25;1.90;;;;;;;8.46;62.24;101897.66;5068905;28;20040;-78
2021/04/13 09:18:08;;;;;;;10.18;2.00;;;;;;;10.06;59.50;101885.25;5071537;28;20025;-78
2021/04/13 09:21:02;;;;;;;14.57;2.22;;;;;;;8.75;60.67;101879.91;5055760;28;20027;-79
2021/04/13 09:23:35;;;;;;;15.10;3.67;;;;;;;8.32;62.71;101891.44;5056948;28;20024;-79
2021/04/13 09:26:09;;;;;;;12.57;1.92;;;;;;;7.53;63.36;101879.13;5057183;28;20032;-79
2021/04/13 09:28:47;;;;;;;11.98;2.40;;;;;;;7.50;64.17;101881.66;5057236;28;20029;-79
2021/04/13 09:31:16;;;;;;;12.95;2.20;;;;;;;8.59;58.80;101885.75;5057171;28;20543;-79
2021/04/13 09:33:43;;;;;;;14.65;1.63;;;;;;;7.72;62.42;101891.47;5057492;28;20036;-78
2021/04/13 09:36:46;;;;;;;14.80;2.63;;;;;;;7.09;65.50;101895.63;5057285;28;20036;-78
2021/04/13 09:39:41;;;;;;;16.08;2.08;;;;;;;6.36;69.17;101897.66;5072546;28;20024;-79
2021/04/13 09:42:29;;;;;;;12.85;2.42;;;;;;;8.13;64.07;101895.47;5057889;28;20017;-78
2021/04/13 09:45:38;;;;;;;9.90;2.08;;;;;;;9.89;59.24;101889.47;5072400;28;20074;-78
2021/04/13 09:48:29;;;;;;;15.50;2.17;;;;;;;10.09;57.71;101881.81;4998102;28;20092;-78
2021/04/13 09:51:26;;;;;;;13.55;2.33;;;;;;;8.67;61.67;101884.13;5044002;28;20037;-78
2021/04/13 09:54:18;;;;;;;10.40;1.85;;;;;;;7.04;67.13;101902.41;5071313;28;20060;-78
2021/04/13 09:56:53;;;;;;;13.43;1.95;;;;;;;5.58;72.17;101910.47;5056344;28;20021;-78
2021/04/13 09:59:42;;;;;;;8.05;1.50;;;;;;;5.00;73.76;101894.44;5071759;28;20032;-77
2021/04/13 10:02:18;;;;;;;8.90;1.40;;;;;;;5.17;75.38;101895.78;5055773;28;20501;-77
2021/04/13 10:05:01;;;;;;;13.02;1.95;;;;;;;5.14;75.64;101900.84;5071337;28;20052;-78
2021/04/13 10:07:40;;;;;;;11.38;1.58;;;;;;;6.83;69.75;101899.44;5055886;28;20481;-79
2021/04/13 10:10:10;;;;;;;10.65;1.60;;;;;;;9.74;62.88;101894.56;5055735;28;20551;-78
2021/04/13 10:13:07;;;;;;;13.57;1.92;;;;;;;9.71;62.91;101879.88;5054553;28;20070;-78
2021/04/13 10:15:47;;;;;;;9.13;1.63;;;;;;;7.87;65.46;101877.91;5071184;28;20033;-78
2021/04/13 10:18:35;;;;;;;11.73;2.22;;;;;;;6.21;69.06;101885.31;5071187;28;20029;-78
2021/04/13 10:21:30;;;;;;;9.05;2.05;;;;;;;5.83;68.59;101893.91;5055473;28;20397;-78
2021/04/13 10:24:01;;;;;;;12.48;1.83;;;;;;;5.94;69.29;101895.94;5055907;28;20029;-79
2021/04/13 10:26:51;;;;;;;14.15;2.08;;;;;;;6.32;65.31;101882.13;5071217;28;20064;-78
2021/04/13 10:29:32;;;;;;;10.95;1.70;;;;;;;8.86;61.70;101886.03;5054725;28;20526;-78
2021/04/13 10:32:34;;;;;;;9.70;1.83;;;;;;;9.48;57.12;101884.88;5055364;28;20029;-78
2021/04/13 10:35:20;;;;;;;11.40;1.55;;;;;;;9.61;57.81;101891.03;5055148;28;20029;-78
2021/04/13 10:38:10;;;;;;;12.05;2.00;;;;;;;8.28;61.60;101888.81;5070523;28;20028;-79
2021/04/13 10:41:14;;;;;;;7.78;1.45;;;;;;;7.38;60.48;101887.50;5070914;28;20120;-79
2021/04/13 10:43:58;;;;;;;11.48;1.48;;;;;;;7.21;60.55;101888.94;5023139;28;20120;-78
2021/04/13 10:46:31;;;;;;;14.02;2.20;;;;;;;7.55;58.62;101883.47;5070116;28;20503;-78
2021/04/13 10:49:32;;;;;;;9.85;2.35;;;;;;;7.90;60.84;101884.84;5070069;28;20033;-78
2021/04/13 10:52:09;;;;;;;11.82;1.83;;;;;;;6.89;62.82;101887.50;5070002;28;20033;-80
2021/04/13 10:55:01;;;;;;;11.95;1.73;;;;;;;6.05;63.99;101888.41;5086777;22;20041;-80
2021/04/13 10:57:57;;;;;;;11.05;2.08;;;;;;;8.84;56.46;101872.25;5040991;28;20482;-80
2021/04/13 11:00:35;;;;;;;14.25;2.70;;;;;;;10.03;53.41;101869.66;5039463;28;20021;-80
2021/04/13 11:03:35;;;;;;;10.38;2.03;;;;;;;10.72;52.22;101864.78;5041764;28;20092;-81
2021/04/13 11:06:29;;;;;;;14.32;1.92;;;;;;;8.14;60.85;101872.25;5020545;28;20041;-81
2021/04/13 11:09:28;;;;;;;8.55;1.60;;;;;;;8.38;61.42;101870.84;5019700;28;20495;-80
2021/04/13 11:12:12;;;;;;;11.43;1.75;;;;;;;7.10;60.65;101875.84;5018509;28;20482;-81
2021/04/13 11:15:15;;;;;;;10.77;1.90;;;;;;;9.91;52.89;101864.41;5021360;28;20033;-80
2021/04/13 11:17:55;;;;;;;8.57;1.60;;;;;;;11.17;50.10;101857.03;5018946;28;20276;-80
2021/04/13 11:20:44;;;;;;;7.88;1.63;;;;;;;11.58;49.39;101858.78;5017445;28;20029;-81
2021/04/13 11:23:52;;;;;;;9.90;2.20;;;;;;;10.24;51.22;101857.69;5016611;28;20030;-81
2021/04/13 11:26:32;;;;;;;10.65;1.58;;;;;;;10.94;48.92;101847.53;5016527;28;20026;-81
2021/04/13 11:29:52;;;;;;;15.35;2.53;;;;;;;9.91;51.01;101859.25;5017671;28;20030;-81
2021/04/13 11:32:55;;;;;;;15.50;2.25;;;;;;;9.01;52.40;101853.41;4976192;28;20022;-81
2021/04/13 11:35:33;;;;;;;10.10;1.90;;;;;;;7.63;54.27;101851.75;5016181;28;20386;-81
2021/04/13 11:38:42;;;;;;;12.73;1.80;;;;;;;8.99;49.18;101850.84;5016421;28;20037;-79
2021/04/13 11:41:31;;;;;;;10.38;1.40;;;;;;;9.64;45.11;101847.88;5029969;28;20490;-79
2021/04/13 11:44:11;;;;;;;11.82;1.52;;;;;;;9.57;43.32;101848.66;5015260;28;20026;-80
2021/04/13 11:46:53;;;;;;;7.68;1.48;;;;;;;10.04;41.64;101847.25;5013870;28;20025;-79
2021/04/13 11:49:36;;;;;;;4.82;1.17;;;;;;;9.19;45.41;101859.63;5015029;28;20549;-79
2021/04/13 11:52:30;;;;;;;7.47;1.25;;;;;;;10.01;45.23;101852.41;5013617;28;20552;-79
2021/04/13 11:54:55;;;;;;;10.25;1.35;;;;;;;10.73;44.12;101843.16;5015240;28;20026;-79
2021/04/13 11:57:26;;;;;;;15.73;2.17;;;;;;;11.79;43.56;101844.84;5017201;28;20037;-79
2021/04/13 12:00:10;;;;;;;8.23;1.90;;;;;;;11.29;43.80;101849.25;5014047;28;20026;-79
2021/04/13 12:02:38;;;;;;;11.38;1.95;;;;;;;10.27;45.49;101850.81;5015903;28;20030;-79
2021/04/13 12:05:04;;;;;;;12.02;1.70;;;;;;;11.57;43.43;101842.28;5014620;28;20456;-79
2021/04/13 12:07:42;;;;;;;13.05;1.85;;;;;;;11.39;44.96;101852.69;5016269;28;20471;-79
2021/04/13 12:10:10;;;;;;;11.80;1.65;;;;;;;11.11;46.72;101847.50;5016307;28;20038;-79
2021/04/13 12:12:35;;;;;;;11.20;2.35;;;;;;;9.28;50.61;101848.47;5016998;28;20021;-79